Terminal Aerodrome Forecast
Issued by NWS Missoula, MT

Home | Current Version | Previous Version | Text Only | Print | Product List | Glossary On
Versions: 1 2 3 4 5 6 7 8 9 10 11 12 13 14 15 16 17 18
108
FTUS45 KMSO 220607 AAA
TAFBTM
TAF AMD
KBTM 220607Z 2206/2306 09004KT 6SM -SN BR SCT040 BKN060
     FM221200 VRB03KT P6SM VCSH BKN060
     FM230000 16007KT 4SM -SN BR SCT030 OVC050=

USA.gov is the U.S. government's official web portal to all federal, state and local government web resources and services.